Terminal Aerodrome Forecast
Issued by NWS

Home | Current Version | Previous Version | Graphics & Text | Print | Product List | Glossary On
Versions: 1 2 3 4 5 6 7 8 9 10 11 12 13 14 15 16 17 18
056
FTUS43 KBIS 090525
TAFDIK
TAF
KDIK 090525Z 0906/1006 30004KT P6SM OVC045
     FM091700 31008KT 2SM -SN BR OVC015
     FM092200 34006KT P6SM -RASN OVC015
     FM100000 02004KT P6SM OVC030
     FM100500 17004KT P6SM OVC020=

USA.gov is the U.S. government's official web portal to all federal, state and local government web resources and services.